Time;durP1;ratioP1;P1;durP2;ratioP2;P2;SDS_P1;SDS_P2;PMS_P1;PMS_P2;Temp;Humidity;BMP_temperature;BMP_pressure;BME280_temperature;BME280_humidity;BME280_pressure;Samples;Min_cycle;Max_cycle;Signal;HPM_P1;HPM_P2
2023/04/19 00:00:41;;;;;;;13.80;12.20;;;;;;;11.11;88.17;102544.84;5261703;28;20073;-71
2023/04/19 00:03:13;;;;;;;13.25;10.98;;;;;;;11.15;87.83;102540.25;5279210;28;20017;-71
2023/04/19 00:05:44;;;;;;;14.18;12.30;;;;;;;11.18;87.04;102529.59;5281690;28;20055;-71
2023/04/19 00:08:16;;;;;;;13.55;12.20;;;;;;;11.18;87.75;102540.09;5278732;28;20084;-71
2023/04/19 00:10:47;;;;;;;13.07;11.80;;;;;;;11.24;86.41;102529.19;5282833;28;20035;-70
2023/04/19 00:13:19;;;;;;;14.18;12.77;;;;;;;11.34;85.65;102540.84;5288340;28;20493;-71
2023/04/19 00:15:50;;;;;;;13.00;11.70;;;;;;;11.37;85.56;102532.78;5281750;28;20359;-71
2023/04/19 00:18:22;;;;;;;16.65;12.30;;;;;;;11.36;86.28;102536.31;5285223;28;20024;-71
2023/04/19 00:20:53;;;;;;;15.02;12.48;;;;;;;11.40;85.45;102529.09;5284475;28;20053;-71
2023/04/19 00:23:24;;;;;;;13.77;12.38;;;;;;;11.40;85.65;102529.09;5280384;28;20697;-71
2023/04/19 00:25:56;;;;;;;13.32;11.75;;;;;;;11.34;85.44;102519.84;5277600;28;20860;-71
2023/04/19 00:28:27;;;;;;;13.77;12.23;;;;;;;11.37;86.49;102530.16;5280779;28;20024;-71
2023/04/19 00:30:58;;;;;;;13.20;11.90;;;;;;;11.42;85.29;102530.69;5286068;28;20032;-71
2023/04/19 00:33:30;;;;;;;13.38;12.02;;;;;;;11.48;84.24;102519.00;5282127;28;20032;-71
2023/04/19 00:36:01;;;;;;;13.60;12.30;;;;;;;11.48;84.56;102526.88;5281297;28;20524;-71
2023/04/19 00:38:33;;;;;;;12.30;11.10;;;;;;;11.52;84.26;102532.78;5275919;28;20035;-71
2023/04/19 00:41:04;;;;;;;13.60;12.20;;;;;;;11.57;83.77;102525.44;5280480;28;20020;-71
2023/04/19 00:43:35;;;;;;;13.27;11.88;;;;;;;11.43;83.60;102511.38;5280010;28;20802;-71
2023/04/19 00:46:07;;;;;;;13.20;11.90;;;;;;;11.64;83.37;102532.84;5282619;28;20056;-71
2023/04/19 00:48:38;;;;;;;13.85;12.45;;;;;;;11.63;84.08;102525.91;5280906;28;20047;-71
2023/04/19 00:51:10;;;;;;;13.82;12.43;;;;;;;11.59;83.32;102521.81;5282406;28;20065;-70
2023/04/19 00:53:42;;;;;;;13.05;11.75;;;;;;;11.60;83.73;102517.41;5284202;28;20027;-71
2023/04/19 00:56:14;;;;;;;15.05;13.55;;;;;;;11.66;83.76;102524.88;5278495;28;20052;-72
2023/04/19 00:58:46;;;;;;;17.53;13.03;;;;;;;11.63;83.54;102527.69;5256353;28;20028;-72
2023/04/19 01:01:18;;;;;;;14.38;12.90;;;;;;;11.65;83.54;102531.06;5279868;28;20025;-73
2023/04/19 01:03:49;;;;;;;13.75;12.30;;;;;;;11.63;84.36;102522.44;5260996;28;20184;-72
2023/04/19 01:06:21;;;;;;;14.65;13.15;;;;;;;11.67;84.58;102521.31;5280101;28;20095;-72
2023/04/19 01:08:52;;;;;;;13.95;12.55;;;;;;;11.69;83.97;102520.25;5279044;28;20436;-72
2023/04/19 01:11:24;;;;;;;14.18;12.68;;;;;;;11.68;85.42;102523.00;5281189;28;20024;-73
2023/04/19 01:13:57;;;;;;;13.45;12.15;;;;;;;11.68;84.81;102513.34;5279018;28;20033;-72
2023/04/19 01:16:28;;;;;;;14.60;12.55;;;;;;;11.72;83.74;102523.66;5256988;28;20027;-73
2023/04/19 01:18:59;;;;;;;13.63;11.93;;;;;;;11.72;84.77;102526.28;5279423;28;20024;-72
2023/04/19 01:21:31;;;;;;;15.35;11.95;;;;;;;11.80;83.56;102526.63;5275205;28;20059;-73
2023/04/19 01:24:02;;;;;;;14.18;12.00;;;;;;;11.79;84.61;102525.78;5277343;28;20287;-71
2023/04/19 01:26:34;;;;;;;14.20;12.18;;;;;;;11.79;84.39;102522.34;5279904;28;20035;-71
2023/04/19 01:29:05;;;;;;;13.93;12.55;;;;;;;11.78;84.61;102521.50;5279109;28;20023;-72
2023/04/19 01:31:36;;;;;;;13.27;11.88;;;;;;;11.75;85.67;102520.84;5261219;28;20340;-72
2023/04/19 01:34:08;;;;;;;13.57;12.18;;;;;;;11.86;84.18;102524.50;5272684;28;20032;-71
2023/04/19 01:36:39;;;;;;;13.95;12.55;;;;;;;11.87;83.95;102523.56;5278623;28;20039;-73
2023/04/19 01:39:10;;;;;;;13.40;11.88;;;;;;;11.84;84.28;102522.91;5272622;28;20080;-71
2023/04/19 01:41:42;;;;;;;13.95;12.52;;;;;;;11.86;84.05;102521.88;5279016;28;20405;-72
2023/04/19 01:44:13;;;;;;;14.85;12.20;;;;;;;11.86;84.09;102514.00;5279696;28;20481;-71
2023/04/19 01:46:44;;;;;;;13.07;11.77;;;;;;;11.98;83.73;102525.50;5276326;28;20029;-71
2023/04/19 01:49:16;;;;;;;14.25;12.75;;;;;;;11.97;84.15;102521.19;5277067;28;20413;-70
2023/04/19 01:51:47;;;;;;;12.85;11.52;;;;;;;11.86;85.01;102506.13;5278483;28;20028;-71
2023/04/19 01:54:18;;;;;;;16.42;13.02;;;;;;;11.91;84.64;102511.06;5276967;28;20046;-71
2023/04/19 01:56:50;;;;;;;13.82;12.38;;;;;;;11.98;84.12;102514.16;5273585;28;20036;-71
2023/04/19 01:59:21;;;;;;;13.77;12.32;;;;;;;11.99;84.57;102511.41;5282275;28;20452;-71
2023/04/19 02:01:52;;;;;;;14.20;12.77;;;;;;;11.98;84.65;102514.16;5280445;28;20029;-71
2023/04/19 02:04:23;;;;;;;14.38;12.50;;;;;;;11.99;85.62;102505.31;5274372;28;20051;-71
2023/04/19 02:06:55;;;;;;;14.52;12.18;;;;;;;11.99;85.39;102503.53;5272580;28;20021;-71
2023/04/19 02:09:26;;;;;;;13.60;12.20;;;;;;;12.03;85.14;102499.78;5260316;28;20035;-71
2023/04/19 02:11:57;;;;;;;16.40;11.85;;;;;;;11.99;87.25;102490.41;5279335;28;20047;-71
2023/04/19 02:14:28;;;;;;;14.48;12.35;;;;;;;11.89;86.48;102487.53;5282981;28;20036;-70
2023/04/19 02:17:00;;;;;;;14.68;13.10;;;;;;;12.03;86.26;102486.63;5262215;28;20012;-71
2023/04/19 02:19:31;;;;;;;15.82;12.82;;;;;;;12.04;85.98;102487.47;5282652;28;20108;-72
2023/04/19 02:22:02;;;;;;;13.95;12.25;;;;;;;12.06;86.69;102481.19;5259678;28;20027;-71
2023/04/19 02:24:34;;;;;;;14.40;12.90;;;;;;;12.03;86.78;102472.66;5258464;28;20474;-71
2023/04/19 02:27:05;;;;;;;13.73;11.90;;;;;;;12.11;86.73;102486.13;5281248;28;20554;-71
2023/04/19 02:29:37;;;;;;;14.25;12.57;;;;;;;12.15;86.67;102487.63;5280836;28;20497;-71
2023/04/19 02:32:08;;;;;;;15.20;13.57;;;;;;;12.11;86.80;102481.72;5276629;28;20043;-71
2023/04/19 02:34:40;;;;;;;15.32;12.93;;;;;;;12.20;86.05;102484.69;5282572;28;20042;-71
2023/04/19 02:37:11;;;;;;;14.18;12.68;;;;;;;12.15;87.01;102491.09;5279506;28;20061;-71
2023/04/19 02:39:42;;;;;;;16.98;13.82;;;;;;;12.19;86.86;102491.72;5269788;28;20052;-71
2023/04/19 02:42:13;;;;;;;15.80;12.57;;;;;;;12.21;86.84;102483.75;5259261;28;20028;-71
2023/04/19 02:44:45;;;;;;;13.45;12.05;;;;;;;12.26;87.51;102494.81;5278859;28;20036;-71
2023/04/19 02:47:16;;;;;;;13.75;12.27;;;;;;;12.23;86.76;102484.50;5276918;28;20222;-71
2023/04/19 02:49:47;;;;;;;16.13;12.30;;;;;;;12.24;86.80;102481.78;5269447;28;20553;-72
2023/04/19 02:52:19;;;;;;;13.63;12.23;;;;;;;12.23;87.07;102480.06;5257618;28;20029;-71
2023/04/19 02:54:50;;;;;;;15.52;12.55;;;;;;;12.21;87.95;102484.59;5282715;28;20052;-71
2023/04/19 02:57:21;;;;;;;15.50;11.98;;;;;;;12.29;86.96;102495.44;5269595;28;20244;-71
2023/04/19 02:59:53;;;;;;;14.18;12.68;;;;;;;12.26;87.00;102485.13;5279254;28;20151;-71
2023/04/19 03:02:24;;;;;;;15.75;12.07;;;;;;;12.27;87.45;102486.81;5280274;28;20490;-71
2023/04/19 03:04:56;;;;;;;13.30;11.80;;;;;;;12.29;87.00;102494.63;5275677;28;20489;-71
2023/04/19 03:07:27;;;;;;;12.70;11.40;;;;;;;12.29;88.24;102492.81;5259373;28;20669;-71
2023/04/19 03:09:58;;;;;;;14.00;12.27;;;;;;;12.20;87.39;102475.03;5275965;28;20500;-71
2023/04/19 03:12:29;;;;;;;12.73;11.45;;;;;;;12.28;88.02;102496.41;5275571;28;20047;-71
2023/04/19 03:15:01;;;;;;;16.65;12.45;;;;;;;12.26;88.74;102493.03;5278651;28;20440;-71
2023/04/19 03:17:32;;;;;;;14.07;12.65;;;;;;;12.26;88.66;102492.19;5262148;28;20401;-71
2023/04/19 03:20:10;;;;;;;13.85;12.40;;;;;;;12.27;89.07;102486.81;5274070;28;20260;-71
2023/04/19 03:22:41;;;;;;;13.35;11.57;;;;;;;12.20;90.34;102482.94;5276822;28;20032;-71
2023/04/19 03:25:13;;;;;;;13.43;11.27;;;;;;;12.22;90.31;102482.81;5278613;28;20032;-71
2023/04/19 03:27:46;;;;;;;12.70;11.40;;;;;;;12.14;90.88;102484.16;5277627;28;20028;-71
2023/04/19 03:30:18;;;;;;;14.23;11.90;;;;;;;12.17;90.08;102488.38;5257459;28;20028;-71
2023/04/19 03:32:50;;;;;;;13.75;11.50;;;;;;;12.11;91.05;102484.34;5276184;28;20413;-71
2023/04/19 03:35:25;;;;;;;13.20;11.80;;;;;;;12.08;90.79;102478.44;5281060;28;20028;-71
2023/04/19 03:37:56;;;;;;;12.70;11.18;;;;;;;12.10;90.77;102476.59;5281870;28;20024;-71
2023/04/19 03:40:29;;;;;;;13.77;11.45;;;;;;;12.04;91.11;102467.28;5276583;28;20033;-71
2023/04/19 03:43:00;;;;;;;13.90;11.35;;;;;;;12.09;90.22;102473.13;5281312;28;20024;-71
2023/04/19 03:45:32;;;;;;;11.95;10.45;;;;;;;12.07;91.33;102472.34;5278553;28;20390;-72
2023/04/19 03:48:03;;;;;;;13.13;11.18;;;;;;;12.03;90.37;102468.25;5262750;28;20489;-73
2023/04/19 03:50:34;;;;;;;11.65;10.38;;;;;;;12.14;90.10;102480.69;5282065;28;20266;-72
2023/04/19 03:53:05;;;;;;;15.43;11.70;;;;;;;12.09;90.61;102474.91;5282554;28;20020;-72
2023/04/19 03:55:37;;;;;;;13.60;10.57;;;;;;;12.06;90.86;102475.09;5282605;28;20358;-73
2023/04/19 03:58:08;;;;;;;12.55;10.98;;;;;;;12.04;90.87;102479.59;5281337;28;20024;-73
2023/04/19 04:00:40;;;;;;;12.35;10.50;;;;;;;12.04;90.85;102476.97;5278839;28;20028;-72
2023/04/19 04:03:11;;;;;;;13.63;10.75;;;;;;;12.09;90.18;102485.41;5283852;28;20047;-71
2023/04/19 04:05:42;;;;;;;11.57;10.38;;;;;;;12.10;90.93;102485.31;5278857;28;20042;-71
2023/04/19 04:08:13;;;;;;;13.32;10.75;;;;;;;11.97;91.31;102484.44;5281101;28;20069;-71
2023/04/19 04:10:45;;;;;;;12.00;10.25;;;;;;;12.04;90.88;102490.94;5279018;28;20039;-71
2023/04/19 04:13:16;;;;;;;11.25;10.05;;;;;;;12.00;91.16;102486.84;5282028;28;20062;-72
2023/04/19 04:15:47;;;;;;;12.15;10.25;;;;;;;12.01;91.76;102488.53;5262268;28;20032;-71
2023/04/19 04:18:19;;;;;;;11.77;10.20;;;;;;;11.89;90.56;102482.28;5282302;28;20828;-71
2023/04/19 04:20:53;;;;;;;11.73;10.32;;;;;;;11.97;91.35;102470.41;5281938;28;20020;-71
2023/04/19 04:23:25;;;;;;;11.40;10.20;;;;;;;11.89;91.08;102478.81;5285158;28;20032;-71
2023/04/19 04:25:59;;;;;;;12.10;10.15;;;;;;;11.99;89.93;102482.53;5277063;28;20539;-71
2023/04/19 04:28:31;;;;;;;11.48;9.52;;;;;;;11.83;90.95;102484.44;5283411;28;20074;-71
2023/04/19 04:31:02;;;;;;;10.73;9.65;;;;;;;11.76;90.57;102477.88;5282720;28;20498;-71
2023/04/19 04:33:33;;;;;;;11.52;9.77;;;;;;;11.76;90.33;102483.13;5275038;28;20028;-71
2023/04/19 04:36:05;;;;;;;12.30;10.50;;;;;;;11.86;89.47;102490.38;5278050;28;20481;-71
2023/04/19 04:38:36;;;;;;;11.15;9.30;;;;;;;11.76;91.06;102477.88;5278893;28;20492;-70
2023/04/19 04:41:07;;;;;;;12.30;10.15;;;;;;;11.80;91.44;102484.63;5280464;28;20299;-71
2023/04/19 04:43:39;;;;;;;11.23;9.77;;;;;;;11.71;90.61;102493.09;5278996;28;20123;-71
2023/04/19 04:46:10;;;;;;;10.73;9.45;;;;;;;11.77;90.52;102488.28;5277482;28;20036;-71
2023/04/19 04:48:41;;;;;;;10.88;9.40;;;;;;;11.64;89.93;102490.00;5279950;28;20085;-70
2023/04/19 04:51:12;;;;;;;11.38;9.15;;;;;;;11.66;90.13;102490.72;5278093;28;20032;-72
2023/04/19 04:53:44;;;;;;;10.35;9.15;;;;;;;11.62;90.65;102497.97;5280700;28;20040;-71
2023/04/19 04:56:15;;;;;;;10.65;9.25;;;;;;;11.65;89.76;102502.19;5281929;28;20063;-71
2023/04/19 04:58:46;;;;;;;9.75;8.75;;;;;;;11.60;90.44;102502.47;5280184;28;20775;-71
2023/04/19 05:01:18;;;;;;;10.63;9.27;;;;;;;11.63;89.57;102510.16;5280862;28;20370;-71
2023/04/19 05:03:50;;;;;;;12.90;8.32;;;;;;;11.56;89.28;102500.16;5284280;28;20362;-71
2023/04/19 05:06:22;;;;;;;9.10;7.90;;;;;;;11.56;87.51;102508.03;5264561;28;20024;-70
2023/04/19 05:08:53;;;;;;;12.68;8.95;;;;;;;11.48;87.79;102505.00;5278425;28;20192;-71
2023/04/19 05:11:26;;;;;;;8.73;7.72;;;;;;;11.40;87.18;102502.84;5261956;28;20032;-71
2023/04/19 05:13:57;;;;;;;10.20;7.45;;;;;;;11.32;87.99;102510.38;5259026;28;20078;-71
2023/04/19 05:16:28;;;;;;;10.18;8.10;;;;;;;11.27;87.79;102509.81;5274887;28;20324;-70
2023/04/19 05:19:00;;;;;;;9.50;6.97;;;;;;;11.26;87.43;102514.22;5280038;28;20189;-71
2023/04/19 05:21:33;;;;;;;8.82;7.05;;;;;;;11.18;88.40;102514.69;5279977;28;20039;-71
2023/04/19 05:24:04;;;;;;;9.27;7.10;;;;;;;11.16;86.90;102510.47;5278983;28;20391;-71
2023/04/19 05:26:35;;;;;;;8.73;6.72;;;;;;;11.19;86.74;102507.66;5277164;28;20082;-71
2023/04/19 05:29:07;;;;;;;8.85;6.80;;;;;;;11.22;86.97;102510.09;5283866;28;20477;-71
2023/04/19 05:31:38;;;;;;;9.82;7.72;;;;;;;11.11;86.36;102499.41;5281236;28;20037;-71
2023/04/19 05:34:09;;;;;;;7.95;6.82;;;;;;;11.20;84.94;102514.59;5277520;28;20029;-72
2023/04/19 05:36:40;;;;;;;11.07;7.70;;;;;;;11.16;85.99;102519.16;5279487;28;20539;-72
2023/04/19 05:39:12;;;;;;;9.60;6.97;;;;;;;11.06;85.65;102499.69;5275502;28;20291;-72
2023/04/19 05:41:43;;;;;;;7.70;6.38;;;;;;;11.22;85.26;102514.50;5275992;28;20012;-71
2023/04/19 05:44:15;;;;;;;10.20;6.80;;;;;;;11.27;84.76;102518.53;5274413;28;21250;-72
2023/04/19 05:46:46;;;;;;;8.32;6.68;;;;;;;11.23;85.69;102517.03;5279893;28;20516;-71
2023/04/19 05:49:17;;;;;;;9.93;7.50;;;;;;;11.20;85.22;102517.19;5285566;28;20027;-72
2023/04/19 05:51:49;;;;;;;7.97;6.35;;;;;;;11.23;86.20;102518.81;5279233;28;20094;-71
2023/04/19 05:54:20;;;;;;;7.78;6.72;;;;;;;11.18;83.93;102516.47;5280207;28;20405;-71
2023/04/19 05:56:51;;;;;;;7.57;6.60;;;;;;;11.17;85.21;102506.88;5275122;28;20033;-71
2023/04/19 05:59:22;;;;;;;9.38;7.10;;;;;;;11.25;83.74;102515.16;5274983;28;20012;-70
2023/04/19 06:01:55;;;;;;;8.40;6.80;;;;;;;11.18;84.37;102524.34;5275691;28;20016;-71
2023/04/19 06:04:26;;;;;;;9.75;6.70;;;;;;;11.14;84.30;102514.97;5281871;28;20556;-70
2023/04/19 06:06:58;;;;;;;8.68;6.82;;;;;;;11.03;85.29;102520.03;5278881;28;20045;-71
2023/04/19 06:09:29;;;;;;;7.60;6.68;;;;;;;11.05;84.87;102524.22;5283718;28;20023;-71
2023/04/19 06:12:00;;;;;;;10.00;7.25;;;;;;;11.04;86.08;102521.69;5280413;28;20470;-71
2023/04/19 06:14:32;;;;;;;8.45;6.57;;;;;;;11.09;85.60;102524.88;5282204;28;20051;-71
2023/04/19 06:17:03;;;;;;;12.93;7.20;;;;;;;11.13;83.68;102519.34;5269529;28;20039;-72
2023/04/19 06:19:35;;;;;;;8.15;6.90;;;;;;;11.27;82.12;102531.63;5279395;28;20287;-71
2023/04/19 06:22:06;;;;;;;10.35;6.47;;;;;;;11.27;81.90;102518.53;5261670;28;20524;-71
2023/04/19 06:24:38;;;;;;;7.43;6.50;;;;;;;11.28;79.53;102520.19;5282079;28;20085;-71
2023/04/19 06:27:09;;;;;;;9.07;6.47;;;;;;;11.38;80.11;102523.13;5280112;28;20047;-71
2023/04/19 06:29:41;;;;;;;12.38;7.40;;;;;;;11.50;77.38;102526.75;5280401;28;20023;-71
2023/04/19 06:32:12;;;;;;;8.65;5.65;;;;;;;11.47;76.29;102513.81;5280223;28;20024;-71
2023/04/19 06:34:43;;;;;;;8.52;6.45;;;;;;;11.51;75.21;102524.03;5273163;28;20036;-71
2023/04/19 06:37:14;;;;;;;7.30;5.95;;;;;;;11.64;75.21;102519.72;5275418;28;20027;-71
2023/04/19 06:39:46;;;;;;;9.35;6.03;;;;;;;11.67;72.83;102516.06;5278524;28;20033;-72
2023/04/19 06:42:18;;;;;;;8.85;6.50;;;;;;;11.75;70.16;102519.06;5273518;28;20024;-71
2023/04/19 06:44:50;;;;;;;6.88;5.82;;;;;;;11.80;67.04;102522.22;5274882;28;20385;-71
2023/04/19 06:47:21;;;;;;;11.13;6.55;;;;;;;11.83;67.48;102511.56;5278055;28;20038;-71
2023/04/19 06:49:53;;;;;;;9.02;5.07;;;;;;;12.01;64.96;102519.19;5274963;28;20396;-71
2023/04/19 06:52:24;;;;;;;8.05;6.00;;;;;;;12.04;63.72;102517.22;5275455;28;20044;-71
2023/04/19 06:54:55;;;;;;;9.90;5.85;;;;;;;12.12;62.40;102514.09;5275515;28;20197;-71
2023/04/19 06:57:27;;;;;;;8.07;5.75;;;;;;;12.41;62.03;102512.19;5278984;28;20442;-71
2023/04/19 06:59:58;;;;;;;7.55;5.85;;;;;;;12.47;61.22;102513.59;5273753;28;20085;-73
2023/04/19 07:02:29;;;;;;;6.25;5.45;;;;;;;12.41;59.82;102520.91;5280332;28;20029;-71
2023/04/19 07:05:01;;;;;;;6.68;5.15;;;;;;;12.43;59.67;102515.59;5281876;28;20017;-71
2023/04/19 07:07:32;;;;;;;7.05;5.10;;;;;;;12.55;59.35;102509.50;5278913;28;20436;-71
2023/04/19 07:10:03;;;;;;;7.97;5.47;;;;;;;12.65;59.29;102517.59;5276978;28;20493;-71
2023/04/19 07:12:35;;;;;;;7.97;5.43;;;;;;;12.62;57.63;102507.31;5276256;28;20090;-72
2023/04/19 07:15:07;;;;;;;9.65;5.97;;;;;;;12.69;56.81;102516.47;5280482;28;20016;-71
2023/04/19 07:17:39;;;;;;;10.70;5.75;;;;;;;12.70;56.75;102506.78;5277466;28;20440;-70
2023/04/19 07:20:10;;;;;;;6.75;5.15;;;;;;;12.82;55.76;102521.75;5279566;28;20553;-71
2023/04/19 07:22:42;;;;;;;6.05;5.28;;;;;;;12.89;54.96;102517.75;5257135;28;20556;-71
2023/04/19 07:25:13;;;;;;;9.38;5.50;;;;;;;13.09;56.05;102519.03;5277123;28;20547;-72
2023/04/19 07:27:44;;;;;;;10.15;5.25;;;;;;;13.14;54.71;102516.91;5277396;28;20020;-72
2023/04/19 07:30:16;;;;;;;11.13;5.20;;;;;;;13.23;53.94;102516.31;5280716;28;20033;-72
2023/04/19 07:32:47;;;;;;;7.72;5.03;;;;;;;13.30;53.24;102519.38;5274295;28;20531;-72
2023/04/19 07:35:18;;;;;;;6.15;5.03;;;;;;;13.24;53.30;102514.53;5279200;28;20024;-72
2023/04/19 07:37:50;;;;;;;9.43;5.07;;;;;;;13.33;52.84;102514.72;5272919;28;20478;-72
2023/04/19 07:40:21;;;;;;;6.63;4.60;;;;;;;13.48;54.06;102504.06;5262142;28;20027;-72
2023/04/19 07:42:54;;;;;;;8.38;5.95;;;;;;;13.62;52.55;102514.47;5258820;28;20016;-71
2023/04/19 07:45:26;;;;;;;7.15;5.00;;;;;;;13.54;51.37;102509.72;5277701;28;20406;-72
2023/04/19 07:47:57;;;;;;;6.28;4.93;;;;;;;13.60;51.17;102514.56;5279161;28;20032;-71
2023/04/19 07:50:28;;;;;;;5.75;4.45;;;;;;;13.73;51.46;102501.38;5280192;28;20033;-72
2023/04/19 07:52:59;;;;;;;6.78;4.60;;;;;;;13.76;49.16;102487.97;5281703;28;20519;-72
2023/04/19 07:55:31;;;;;;;7.60;5.22;;;;;;;13.91;49.81;102504.47;5279139;28;20497;-72
2023/04/19 07:58:02;;;;;;;7.40;5.38;;;;;;;13.88;49.80;102505.53;5278956;28;20697;-72
2023/04/19 08:00:35;;;;;;;9.10;4.95;;;;;;;13.82;50.27;102505.13;5276065;28;20170;-72
2023/04/19 08:03:06;;;;;;;8.75;5.80;;;;;;;14.02;49.71;102494.00;5275059;28;20016;-72
2023/04/19 08:05:38;;;;;;;6.93;4.88;;;;;;;14.22;49.81;102494.31;5280440;28;20040;-72
2023/04/19 08:08:09;;;;;;;5.68;4.70;;;;;;;14.28;49.30;102499.97;5278862;28;20028;-71
2023/04/19 08:10:40;;;;;;;7.30;4.63;;;;;;;14.32;48.11;102496.16;5275024;28;20035;-72
2023/04/19 08:13:11;;;;;;;7.10;5.22;;;;;;;14.41;47.78;102492.00;5278572;28;20029;-72
2023/04/19 08:15:43;;;;;;;8.32;5.03;;;;;;;14.62;48.35;102501.91;5276593;28;20059;-71
2023/04/19 08:18:14;;;;;;;7.18;4.97;;;;;;;14.53;47.51;102483.19;5276976;28;20169;-72
2023/04/19 08:20:46;;;;;;;5.43;4.68;;;;;;;14.59;47.04;102487.16;5279939;28;20102;-71
2023/04/19 08:23:18;;;;;;;8.93;5.03;;;;;;;14.66;46.62;102479.59;5267413;28;20039;-71
2023/04/19 08:25:49;;;;;;;6.90;5.22;;;;;;;14.79;46.90;102481.19;5279921;28;20046;-71
2023/04/19 08:28:22;;;;;;;7.85;5.05;;;;;;;14.78;46.71;102478.69;5264020;28;20024;-70
2023/04/19 08:30:54;;;;;;;8.05;4.53;;;;;;;14.77;45.69;102480.50;5262985;28;20052;-71
2023/04/19 08:33:25;;;;;;;9.07;5.00;;;;;;;14.85;45.81;102482.56;5280440;28;20171;-70
2023/04/19 08:35:56;;;;;;;7.25;5.50;;;;;;;14.76;45.26;102502.53;5279515;28;20023;-70
2023/04/19 08:38:27;;;;;;;7.47;5.20;;;;;;;14.81;45.39;102478.44;5260417;28;20433;-70
2023/04/19 08:40:59;;;;;;;9.30;4.88;;;;;;;14.83;45.58;102480.00;5281248;28;20055;-70
2023/04/19 08:43:34;;;;;;;7.13;4.88;;;;;;;15.01;44.58;102477.75;5276198;28;20467;-70
2023/04/19 08:46:06;;;;;;;6.57;4.38;;;;;;;14.98;43.90;102482.44;5278364;28;20032;-70
2023/04/19 08:48:39;;;;;;;6.80;4.43;;;;;;;15.24;43.54;102477.75;5284492;28;20158;-70
2023/04/19 08:51:12;;;;;;;8.43;4.63;;;;;;;15.41;42.64;102476.41;5277857;28;20028;-72
2023/04/19 08:53:43;;;;;;;6.18;4.60;;;;;;;15.44;41.55;102471.72;5278456;28;20482;-70
2023/04/19 08:56:15;;;;;;;6.20;4.65;;;;;;;15.43;40.87;102472.69;5282869;28;20118;-70
2023/04/19 08:58:46;;;;;;;9.27;4.78;;;;;;;15.60;41.48;102473.97;5281577;28;20036;-70
2023/04/19 09:01:17;;;;;;;7.05;4.70;;;;;;;15.71;42.45;102479.28;5274765;28;20020;-71
2023/04/19 09:03:49;;;;;;;5.78;4.47;;;;;;;15.77;41.94;102467.38;5277404;28;20043;-71
2023/04/19 09:06:20;;;;;;;6.25;4.85;;;;;;;15.65;40.96;102469.22;5277812;28;20016;-70
2023/04/19 09:08:57;;;;;;;7.50;4.60;;;;;;;15.72;40.54;102473.06;5281862;28;20036;-71
2023/04/19 09:11:40;;;;;;;6.38;4.47;;;;;;;15.97;40.51;102465.75;5277180;28;20074;-70
2023/04/19 09:14:14;;;;;;;7.15;4.70;;;;;;;16.03;40.10;102468.75;5275105;28;20075;-70
2023/04/19 09:16:45;;;;;;;9.10;4.47;;;;;;;15.90;39.91;102475.16;5280955;28;20024;-70
2023/04/19 09:19:17;;;;;;;6.18;4.57;;;;;;;16.04;39.63;102461.66;5278227;28;20059;-70
2023/04/19 09:21:50;;;;;;;7.63;3.83;;;;;;;16.02;39.51;102468.84;5275855;28;20664;-71
2023/04/19 09:24:38;;;;;;;7.03;3.65;;;;;;;16.37;39.53;102459.81;5261048;28;20359;-70
2023/04/19 09:27:11;;;;;;;6.65;3.90;;;;;;;16.11;38.14;102467.28;5279648;28;20496;-71
2023/04/19 09:29:52;;;;;;;7.78;3.85;;;;;;;16.38;37.87;102470.25;5279608;28;20024;-70
2023/04/19 09:32:23;;;;;;;6.18;3.55;;;;;;;16.30;37.37;102470.06;5274631;28;20035;-70
2023/04/19 09:34:57;;;;;;;3.75;3.30;;;;;;;16.25;37.39;102470.44;5277182;28;20032;-70
2023/04/19 09:37:28;;;;;;;4.30;3.10;;;;;;;16.16;37.18;102478.28;5278229;28;20028;-71
2023/04/19 09:40:02;;;;;;;6.82;3.83;;;;;;;16.16;36.41;102478.28;5276307;28;20035;-71
2023/04/19 09:42:45;;;;;;;4.70;3.10;;;;;;;16.10;36.70;102457.63;5275128;28;20430;-70
2023/04/19 09:45:16;;;;;;;5.95;3.05;;;;;;;16.32;35.60;102465.47;5281093;28;20438;-71
2023/04/19 09:48:06;;;;;;;6.13;3.50;;;;;;;16.60;36.87;102477.25;5279501;28;20028;-69
2023/04/19 09:50:51;;;;;;;4.03;3.03;;;;;;;16.41;36.38;102458.59;5279837;28;20032;-71
2023/04/19 09:53:23;;;;;;;4.22;3.53;;;;;;;16.11;34.87;102464.63;5278688;28;20031;-71
2023/04/19 09:55:54;;;;;;;3.88;2.67;;;;;;;16.19;35.78;102457.72;5276516;28;20044;-71
2023/04/19 09:58:26;;;;;;;5.75;2.95;;;;;;;16.40;35.50;102456.91;5279343;28;20603;-71
2023/04/19 10:00:58;;;;;;;3.95;2.60;;;;;;;16.43;35.47;102464.56;5280610;28;20101;-71
2023/04/19 10:03:30;;;;;;;7.60;2.97;;;;;;;16.40;35.02;102452.47;5278866;28;20036;-70
2023/04/19 10:06:02;;;;;;;6.60;3.13;;;;;;;16.50;36.26;102465.75;5276208;28;20493;-71
2023/04/19 10:08:33;;;;;;;9.90;3.25;;;;;;;16.59;35.48;102464.13;5278462;28;20038;-71
2023/04/19 10:11:05;;;;;;;5.68;2.75;;;;;;;16.56;34.41;102470.53;5277653;28;20024;-70
2023/04/19 10:13:38;;;;;;;5.07;2.33;;;;;;;16.52;32.26;102469.13;5271398;28;20430;-71
2023/04/19 10:16:09;;;;;;;6.28;2.55;;;;;;;16.56;32.70;102465.25;5253209;28;20024;-71
2023/04/19 10:18:41;;;;;;;5.45;3.35;;;;;;;16.45;33.75;102462.66;5275724;28;20039;-71
2023/04/19 10:21:14;;;;;;;5.90;2.58;;;;;;;16.50;33.74;102460.44;5279002;28;20449;-71
2023/04/19 10:23:46;;;;;;;;;;;;;;;17.37;33.62;102463.53;5282937;28;20028;-71
2023/04/19 10:26:17;;;;;;;6.85;2.95;;;;;;;16.67;33.15;102449.28;5259085;28;20231;-71
2023/04/19 10:28:49;;;;;;;6.20;3.08;;;;;;;16.68;33.76;102452.78;5280200;28;20042;-71
2023/04/19 10:31:22;;;;;;;7.05;2.80;;;;;;;16.62;33.39;102453.28;5274090;28;20425;-70
2023/04/19 10:33:53;;;;;;;;;;;;;;;17.44;32.59;102438.19;5273691;28;20040;-71
2023/04/19 10:36:26;;;;;;;5.32;2.60;;;;;;;16.62;31.89;102432.94;5277693;28;19924;-71
2023/04/19 10:38:57;;;;;;;4.70;2.33;;;;;;;16.59;31.94;102446.44;5279688;28;20035;-70
2023/04/19 10:41:56;;;;;;;6.88;2.42;;;;;;;16.87;30.99;102463.50;5272363;28;20024;-71
2023/04/19 10:44:27;;;;;;;5.22;2.03;;;;;;;16.55;30.57;102437.06;5276866;28;20028;-70
2023/04/19 10:46:58;;;;;;;5.85;2.13;;;;;;;16.48;31.29;102442.06;5272568;28;20017;-70
2023/04/19 10:49:30;;;;;;;2.75;2.10;;;;;;;16.85;31.77;102438.94;5275736;28;20491;-71
2023/04/19 10:52:01;;;;;;;5.75;2.25;;;;;;;16.96;31.14;102438.84;5279371;28;20093;-70
2023/04/19 10:54:35;;;;;;;7.97;2.08;;;;;;;16.75;30.84;102441.56;5276018;28;20404;-70
2023/04/19 10:57:09;;;;;;;5.47;1.70;;;;;;;16.80;29.58;102437.69;5281019;28;20070;-69
2023/04/19 10:59:42;;;;;;;4.63;1.80;;;;;;;16.75;29.61;102430.97;5277426;28;20037;-71
2023/04/19 11:02:26;;;;;;;3.63;1.80;;;;;;;17.08;29.49;102429.00;5275073;28;20020;-70
2023/04/19 11:04:59;;;;;;;3.10;1.75;;;;;;;16.92;28.40;102428.66;5274546;28;20595;-71
2023/04/19 11:07:36;;;;;;;2.67;1.10;;;;;;;16.90;29.18;102425.34;5280253;28;20089;-71
2023/04/19 11:10:08;;;;;;;1.92;1.25;;;;;;;16.78;28.09;102435.16;5275462;28;20055;-71
2023/04/19 11:12:43;;;;;;;3.30;1.47;;;;;;;16.98;29.31;102428.97;5266761;28;20128;-71
2023/04/19 11:15:15;;;;;;;4.95;1.70;;;;;;;16.84;29.12;102421.38;5278334;28;20398;-70
2023/04/19 11:17:49;;;;;;;6.07;1.40;;;;;;;16.99;28.80;102422.72;5278443;28;20024;-70
2023/04/19 11:20:22;;;;;;;4.93;1.58;;;;;;;17.10;29.16;102427.06;5274733;28;20102;-71
2023/04/19 11:22:59;;;;;;;5.68;1.90;;;;;;;17.02;29.07;102421.63;5273467;28;20024;-70
2023/04/19 11:25:32;;;;;;;2.72;1.70;;;;;;;16.90;28.54;102438.56;5273013;28;20041;-71
2023/04/19 11:28:04;;;;;;;5.32;2.00;;;;;;;17.16;29.63;102423.91;5276382;28;21162;-71
2023/04/19 11:30:36;;;;;;;6.63;2.00;;;;;;;17.05;30.20;102426.66;5272089;28;20162;-71
2023/04/19 11:33:07;;;;;;;4.68;1.90;;;;;;;17.34;30.12;102417.94;5273392;28;20020;-71
2023/04/19 11:35:38;;;;;;;5.85;2.13;;;;;;;17.31;29.44;102413.72;5275100;28;20040;-71
2023/04/19 11:38:12;;;;;;;5.47;2.13;;;;;;;17.40;31.28;102412.94;5276239;28;20099;-70
2023/04/19 11:40:43;;;;;;;7.07;2.47;;;;;;;17.29;30.07;102417.50;5273175;28;20024;-71